Time;durP1;ratioP1;P1;durP2;ratioP2;P2;SDS_P1;SDS_P2;PMS_P1;PMS_P2;Temp;Humidity;BMP_temperature;BMP_pressure;BME280_temperature;BME280_humidity;BME280_pressure;Samples;Min_cycle;Max_cycle;Signal;HPM_P1;HPM_P2
2021/04/28 00:00:29;;;;;;;8.95;4.35;;;6.00;84.10;;;;;;3545207;40;20042;-64
2021/04/28 00:02:55;;;;;;;8.48;4.07;;;6.00;84.50;;;;;;3538618;40;20687;-65
2021/04/28 00:05:22;;;;;;;8.18;4.22;;;6.00;83.60;;;;;;3541497;40;20033;-65
2021/04/28 00:07:48;;;;;;;10.25;4.30;;;6.00;84.60;;;;;;3541319;40;20116;-65
2021/04/28 00:10:17;;;;;;;9.88;4.15;;;5.90;86.30;;;;;;3543916;40;20038;-65
2021/04/28 00:12:43;;;;;;;11.60;4.53;;;5.80;86.60;;;;;;3544659;40;20042;-65
2021/04/28 00:15:18;;;;;;;7.90;4.30;;;5.80;85.20;;;;;;3540256;40;20041;-65
2021/04/28 00:17:44;;;;;;;13.25;4.85;;;5.90;85.60;;;;;;3540636;40;20042;-65
2021/04/28 00:20:12;;;;;;;10.93;4.75;;;5.70;86.00;;;;;;3537295;40;20034;-65
2021/04/28 00:22:39;;;;;;;7.57;4.57;;;5.70;86.00;;;;;;3539896;40;20334;-65
2021/04/28 00:25:10;;;;;;;7.55;4.00;;;5.70;87.50;;;;;;3540222;40;20045;-65
2021/04/28 00:27:36;;;;;;;9.55;4.45;;;5.70;86.60;;;;;;3548608;40;20042;-65
2021/04/28 00:30:09;;;;;;;10.15;4.47;;;5.60;87.00;;;;;;3544916;40;20108;-65
2021/04/28 00:32:36;;;;;;;14.40;4.82;;;5.60;87.20;;;;;;3553765;40;20062;-65
2021/04/28 00:35:04;;;;;;;8.68;4.47;;;5.60;86.70;;;;;;3552144;40;20301;-65
2021/04/28 00:37:30;;;;;;;8.05;4.63;;;5.60;86.90;;;;;;3549664;40;20038;-64
2021/04/28 00:39:56;;;;;;;8.77;4.82;;;5.70;87.10;;;;;;3541207;40;20105;-65
2021/04/28 00:42:21;;;;;;;13.15;5.18;;;5.60;87.30;;;;;;3540828;40;20838;-65
2021/04/28 00:44:48;;;;;;;10.52;4.40;;;5.60;87.30;;;;;;3540803;40;20050;-65
2021/04/28 00:47:14;;;;;;;10.40;5.07;;;5.60;88.60;;;;;;3542863;40;20623;-66
2021/04/28 00:49:40;;;;;;;8.73;4.60;;;5.60;87.60;;;;;;3552137;40;20034;-65
2021/04/28 00:52:06;;;;;;;9.48;4.22;;;5.60;88.40;;;;;;3554840;40;20584;-65
2021/04/28 00:54:32;;;;;;;10.45;4.82;;;5.50;88.40;;;;;;3554700;40;20031;-65
2021/04/28 00:57:00;;;;;;;10.70;4.88;;;5.50;89.20;;;;;;3552068;40;20044;-65
2021/04/28 00:59:27;;;;;;;9.88;4.65;;;5.50;88.80;;;;;;3549444;40;20072;-65
2021/04/28 01:01:52;;;;;;;10.55;4.57;;;5.50;88.90;;;;;;3546980;40;20038;-64
2021/04/28 01:04:21;;;;;;;8.20;4.60;;;5.50;89.50;;;;;;3547630;40;20046;-65
2021/04/28 01:06:47;;;;;;;13.15;5.25;;;5.50;89.10;;;;;;3548659;40;20088;-65
2021/04/28 01:09:14;;;;;;;11.73;4.30;;;5.40;89.30;;;;;;3550623;40;20112;-65
2021/04/28 01:11:42;;;;;;;12.65;4.82;;;5.50;90.00;;;;;;3546342;40;20040;-64
2021/04/28 01:14:08;;;;;;;8.45;4.32;;;5.50;90.30;;;;;;3548069;40;20050;-65
2021/04/28 01:16:35;;;;;;;12.27;6.28;;;5.50;90.30;;;;;;3547097;40;20059;-65
2021/04/28 01:19:05;;;;;;;11.82;5.03;;;5.50;90.30;;;;;;3544277;40;20763;-65
2021/04/28 01:21:36;;;;;;;9.68;4.90;;;5.40;90.00;;;;;;3548960;40;20113;-65
2021/04/28 01:24:02;;;;;;;10.30;4.93;;;5.40;90.30;;;;;;3546048;40;20046;-66
2021/04/28 01:26:29;;;;;;;9.80;4.72;;;5.40;90.00;;;;;;3545470;40;20055;-65
2021/04/28 01:28:59;;;;;;;9.98;4.65;;;5.40;90.30;;;;;;3543386;40;20478;-65
2021/04/28 01:31:29;;;;;;;9.95;5.00;;;5.40;91.10;;;;;;3549039;40;20050;-65
2021/04/28 01:33:58;;;;;;;11.10;4.80;;;5.40;91.00;;;;;;3539530;40;20195;-64
2021/04/28 01:36:28;;;;;;;9.55;5.00;;;5.40;90.80;;;;;;3545542;40;20060;-64
2021/04/28 01:39:00;;;;;;;12.45;4.68;;;5.40;90.90;;;;;;3548280;40;20408;-65
2021/04/28 01:41:28;;;;;;;10.23;5.07;;;5.30;90.80;;;;;;3542168;40;20162;-65
2021/04/28 01:43:57;;;;;;;9.75;4.70;;;5.30;90.70;;;;;;3540660;40;20683;-65
2021/04/28 01:46:27;;;;;;;13.60;5.47;;;5.30;90.80;;;;;;3538999;40;20042;-65
2021/04/28 01:48:54;;;;;;;16.00;5.60;;;5.30;90.80;;;;;;3541013;40;20046;-64
2021/04/28 01:51:21;;;;;;;8.25;4.95;;;5.30;90.70;;;;;;3542950;40;20046;-64
2021/04/28 01:53:47;;;;;;;9.98;5.15;;;5.30;90.90;;;;;;3545192;40;20122;-64
2021/04/28 01:56:14;;;;;;;10.73;5.43;;;5.30;90.50;;;;;;3554872;40;20041;-65
2021/04/28 01:58:44;;;;;;;9.63;5.03;;;5.30;90.30;;;;;;3546124;40;20508;-64
2021/04/28 02:01:23;;;;;;;12.68;5.18;;;5.30;90.40;;;;;;3543549;40;20411;-64
2021/04/28 02:03:52;;;;;;;12.77;5.32;;;5.30;90.70;;;;;;3540110;40;20050;-64
2021/04/28 02:06:19;;;;;;;11.55;4.70;;;5.30;90.30;;;;;;3546462;40;20038;-65
2021/04/28 02:08:45;;;;;;;15.07;5.57;;;5.30;90.40;;;;;;3554046;40;20124;-64
2021/04/28 02:11:12;;;;;;;9.68;5.38;;;5.40;90.40;;;;;;3551466;40;20045;-64
2021/04/28 02:13:44;;;;;;;11.77;5.47;;;5.40;90.20;;;;;;3548757;40;20592;-65
2021/04/28 02:16:21;;;;;;;11.02;5.10;;;5.30;90.10;;;;;;3553339;40;20056;-64
2021/04/28 02:18:49;;;;;;;10.88;4.97;;;5.30;90.50;;;;;;3547364;40;20506;-65
2021/04/28 02:21:15;;;;;;;18.95;5.72;;;5.30;90.50;;;;;;3543302;40;20050;-64
2021/04/28 02:23:55;;;;;;;8.68;4.63;;;5.30;90.30;;;;;;3549473;40;20739;-64
2021/04/28 02:26:22;;;;;;;8.77;5.15;;;5.20;90.70;;;;;;3551106;40;20038;-65
2021/04/28 02:28:48;;;;;;;10.63;4.93;;;5.20;90.60;;;;;;3553873;40;20144;-64
2021/04/28 02:31:14;;;;;;;18.58;5.70;;;5.20;90.80;;;;;;3545225;40;20916;-64
2021/04/28 02:33:43;;;;;;;10.30;5.25;;;5.20;90.80;;;;;;3549382;40;20427;-65
2021/04/28 02:36:34;;;;;;;10.30;5.65;;;5.20;90.40;;;;;;3538104;40;20077;-64
2021/04/28 02:39:22;;;;;;;11.52;6.13;;;5.20;90.30;;;;;;3552532;40;20808;-65
2021/04/28 02:41:51;;;;;;;18.17;5.45;;;5.20;90.60;;;;;;3542953;40;20109;-64
2021/04/28 02:44:19;;;;;;;12.23;5.90;;;5.10;90.70;;;;;;3541718;40;20107;-64
2021/04/28 02:46:47;;;;;;;16.50;5.88;;;5.10;90.90;;;;;;3547001;40;20026;-65
2021/04/28 02:49:15;;;;;;;13.48;5.93;;;5.00;91.00;;;;;;3545147;40;20073;-65
2021/04/28 02:52:03;;;;;;;9.98;4.82;;;5.00;91.10;;;;;;3550654;40;20093;-64
2021/04/28 02:54:45;;;;;;;14.07;6.55;;;5.00;91.20;;;;;;3544152;40;20334;-65
2021/04/28 02:57:17;;;;;;;10.45;5.97;;;5.00;91.50;;;;;;3544248;40;20097;-65
2021/04/28 02:59:42;;;;;;;17.20;6.03;;;5.00;91.70;;;;;;3539965;40;20188;-64
2021/04/28 03:02:10;;;;;;;11.60;5.68;;;5.00;91.60;;;;;;3544597;40;20048;-64
2021/04/28 03:04:40;;;;;;;11.02;5.50;;;4.90;91.50;;;;;;3549095;40;20073;-64
2021/04/28 03:07:19;;;;;;;13.30;5.22;;;4.90;91.80;;;;;;3551897;40;20710;-64
2021/04/28 03:09:45;;;;;;;12.18;5.88;;;4.80;91.90;;;;;;3543039;40;20034;-64
2021/04/28 03:12:12;;;;;;;13.98;6.32;;;4.80;92.20;;;;;;3549930;40;20144;-65
2021/04/28 03:14:45;;;;;;;13.43;6.22;;;4.80;92.20;;;;;;3553815;40;20690;-64
2021/04/28 03:17:11;;;;;;;13.25;5.75;;;4.70;92.70;;;;;;3545290;40;20060;-65
2021/04/28 03:19:38;;;;;;;15.70;5.95;;;4.60;92.70;;;;;;3541930;40;20348;-64
2021/04/28 03:22:04;;;;;;;13.45;5.65;;;4.60;92.90;;;;;;3537467;40;20846;-64
2021/04/28 03:24:30;;;;;;;14.02;6.53;;;4.60;93.30;;;;;;3545203;40;20053;-64
2021/04/28 03:27:09;;;;;;;13.65;6.15;;;4.50;93.40;;;;;;3542355;40;20034;-65
2021/04/28 03:29:36;;;;;;;16.23;6.30;;;4.50;93.00;;;;;;3549907;40;20054;-64
2021/04/28 03:32:04;;;;;;;17.60;5.95;;;4.50;93.40;;;;;;3546892;40;20662;-65
2021/04/28 03:34:31;;;;;;;15.65;6.68;;;4.40;94.10;;;;;;3547713;40;20057;-64
2021/04/28 03:36:58;;;;;;;11.57;5.70;;;4.30;94.40;;;;;;3551103;40;20139;-64
2021/04/28 03:39:35;;;;;;;16.73;7.10;;;4.30;94.50;;;;;;3550951;40;20389;-64
2021/04/28 03:42:03;;;;;;;13.40;5.65;;;4.20;94.80;;;;;;3552428;40;20104;-64
2021/04/28 03:44:31;;;;;;;16.40;6.55;;;4.10;95.20;;;;;;3545183;40;20082;-64
2021/04/28 03:46:57;;;;;;;12.40;6.50;;;4.00;95.40;;;;;;3544408;40;20049;-64
2021/04/28 03:49:23;;;;;;;18.05;6.75;;;4.00;95.40;;;;;;3551223;40;20733;-64
2021/04/28 03:51:50;;;;;;;12.77;6.28;;;4.00;96.00;;;;;;3544571;40;20037;-64
2021/04/28 03:54:17;;;;;;;17.20;6.78;;;3.90;95.80;;;;;;3546382;40;20743;-64
2021/04/28 03:56:46;;;;;;;14.65;6.53;;;3.90;95.50;;;;;;3550267;40;20065;-64
2021/04/28 03:59:13;;;;;;;14.40;6.65;;;4.00;95.80;;;;;;3542210;40;20822;-65
2021/04/28 04:01:39;;;;;;;14.05;6.50;;;4.00;95.70;;;;;;3547444;40;20042;-64
2021/04/28 04:04:08;;;;;;;17.00;6.90;;;4.10;96.20;;;;;;3542222;40;20128;-65
2021/04/28 04:07:09;;;;;;;18.27;6.90;;;4.00;96.00;;;;;;3532283;40;20113;-65
2021/04/28 04:09:46;;;;;;;19.40;6.70;;;4.00;96.50;;;;;;3542831;40;20590;-65
2021/04/28 04:12:13;;;;;;;14.65;7.22;;;3.90;96.70;;;;;;3542763;40;20147;-64
2021/04/28 04:14:47;;;;;;;18.42;6.60;;;3.90;96.60;;;;;;3537904;40;20062;-65
2021/04/28 04:17:13;;;;;;;13.63;6.75;;;3.90;96.20;;;;;;3543950;40;20041;-65
2021/04/28 04:19:40;;;;;;;13.13;6.70;;;3.90;96.30;;;;;;3551363;40;20045;-64
2021/04/28 04:22:13;;;;;;;15.55;6.85;;;4.00;96.20;;;;;;3551106;40;20448;-65
2021/04/28 04:25:05;;;;;;;13.35;7.00;;;4.10;96.20;;;;;;3543538;40;20043;-67
2021/04/28 04:27:32;;;;;;;13.15;6.53;;;4.10;96.50;;;;;;3547304;40;20077;-65
2021/04/28 04:30:19;;;;;;;16.63;7.00;;;4.10;96.50;;;;;;3545105;40;20053;-64
2021/04/28 04:33:03;;;;;;;16.33;6.93;;;4.10;96.50;;;;;;3550726;40;20061;-65
2021/04/28 04:35:48;;;;;;;18.95;7.32;;;4.20;96.40;;;;;;3541697;40;20150;-64
2021/04/28 04:38:45;;;;;;;19.17;7.82;;;4.20;96.10;;;;;;3545458;40;20046;-64
2021/04/28 04:41:34;;;;;;;19.77;7.93;;;4.20;95.90;;;;;;3542899;40;20074;-65
2021/04/28 04:44:10;;;;;;;13.60;6.97;;;4.30;95.90;;;;;;3546676;40;20159;-64
2021/04/28 04:46:59;;;;;;;15.82;7.82;;;4.30;96.00;;;;;;3540076;40;20058;-65
2021/04/28 04:49:24;;;;;;;15.18;7.60;;;4.40;96.00;;;;;;3550148;40;20038;-65
2021/04/28 04:51:50;;;;;;;17.48;7.00;;;4.40;96.10;;;;;;3552898;40;20034;-65
2021/04/28 04:54:16;;;;;;;16.10;6.85;;;4.50;95.80;;;;;;3542561;40;20034;-65
2021/04/28 04:56:42;;;;;;;18.23;7.22;;;4.60;96.20;;;;;;3539806;40;20729;-65
2021/04/28 04:59:08;;;;;;;15.60;6.70;;;4.60;95.30;;;;;;3550096;40;20033;-65
2021/04/28 05:01:33;;;;;;;13.85;7.10;;;4.60;95.50;;;;;;3546779;40;20072;-64
2021/04/28 05:03:59;;;;;;;19.77;8.68;;;4.70;95.40;;;;;;3543433;40;20068;-64
2021/04/28 05:06:25;;;;;;;15.80;7.65;;;4.90;95.40;;;;;;3547087;40;20050;-65
2021/04/28 05:08:50;;;;;;;17.95;7.57;;;4.90;95.10;;;;;;3547036;40;20510;-65
2021/04/28 05:11:16;;;;;;;16.65;7.90;;;4.90;94.80;;;;;;3551433;40;20050;-64
2021/04/28 05:13:42;;;;;;;16.55;8.10;;;5.00;95.20;;;;;;3543849;40;20299;-64
2021/04/28 05:16:08;;;;;;;21.02;8.57;;;5.00;94.70;;;;;;3543992;40;20140;-64
2021/04/28 05:18:34;;;;;;;15.18;7.60;;;5.00;94.90;;;;;;3547610;40;20108;-64
2021/04/28 05:20:59;;;;;;;22.23;8.13;;;5.10;94.70;;;;;;3551105;40;20038;-64
2021/04/28 05:23:25;;;;;;;16.80;8.70;;;5.10;94.20;;;;;;3544215;40;20041;-64
2021/04/28 05:26:09;;;;;;;15.48;7.93;;;5.10;94.20;;;;;;3550271;40;20358;-64
2021/04/28 05:28:35;;;;;;;24.75;8.35;;;5.30;94.20;;;;;;3552218;40;20475;-64
2021/04/28 05:31:00;;;;;;;27.27;9.05;;;5.30;94.30;;;;;;3554102;40;20050;-64
2021/04/28 05:33:26;;;;;;;21.02;8.32;;;5.40;94.30;;;;;;3552649;40;20034;-66
2021/04/28 05:35:52;;;;;;;17.15;7.43;;;5.50;94.00;;;;;;3551133;40;20038;-64
2021/04/28 05:38:18;;;;;;;25.08;8.50;;;5.60;94.20;;;;;;3553273;40;20112;-64
2021/04/28 05:40:43;;;;;;;18.10;8.52;;;5.70;93.20;;;;;;3546736;40;20070;-65
2021/04/28 05:43:09;;;;;;;24.85;8.82;;;5.90;92.70;;;;;;3535276;40;20123;-65
2021/04/28 05:45:44;;;;;;;22.25;8.35;;;6.00;93.50;;;;;;3554188;40;20054;-65
2021/04/28 05:48:15;;;;;;;24.50;8.45;;;6.10;93.30;;;;;;3555220;40;20031;-65
2021/04/28 05:50:42;;;;;;;23.50;8.07;;;6.30;92.30;;;;;;3549442;40;20061;-65
2021/04/28 05:53:09;;;;;;;21.67;8.68;;;6.50;91.60;;;;;;3550588;40;20030;-65
2021/04/28 05:55:36;;;;;;;19.60;8.77;;;6.60;91.80;;;;;;3547136;40;20045;-65
2021/04/28 05:58:03;;;;;;;75.07;12.73;;;6.90;91.30;;;;;;3548840;40;20046;-65
2021/04/28 06:00:30;;;;;;;20.17;8.55;;;7.00;91.40;;;;;;3557119;40;20091;-64
2021/04/28 06:02:56;;;;;;;32.10;8.70;;;7.10;90.20;;;;;;3550643;40;20547;-64
2021/04/28 06:05:22;;;;;;;21.40;8.05;;;6.90;87.70;;;;;;3546125;40;20085;-64
2021/04/28 06:07:48;;;;;;;18.30;8.23;;;7.00;89.70;;;;;;3558190;40;20570;-64
2021/04/28 06:10:18;;;;;;;37.25;9.50;;;6.90;88.00;;;;;;3552312;40;20053;-64
2021/04/28 06:12:45;;;;;;;40.67;16.23;;;7.00;88.60;;;;;;3552169;40;20038;-64
2021/04/28 06:15:13;;;;;;;21.98;8.75;;;7.10;90.80;;;;;;3550475;40;20077;-64
2021/04/28 06:17:40;;;;;;;20.10;8.23;;;7.30;89.10;;;;;;3546916;40;20057;-64
2021/04/28 06:20:09;;;;;;;19.35;8.60;;;7.60;89.50;;;;;;3547009;40;20415;-64
2021/04/28 06:22:35;;;;;;;24.77;8.40;;;7.70;87.30;;;;;;3555645;40;20038;-64
2021/04/28 06:25:01;;;;;;;18.85;7.93;;;7.80;85.30;;;;;;3557070;40;20042;-64
2021/04/28 06:27:27;;;;;;;21.13;8.55;;;7.70;86.50;;;;;;3547088;40;20787;-64
2021/04/28 06:29:52;;;;;;;20.65;8.90;;;8.00;84.60;;;;;;3544395;40;20225;-65
2021/04/28 06:32:18;;;;;;;15.93;8.10;;;8.00;83.80;;;;;;3546440;40;20074;-64
2021/04/28 06:34:44;;;;;;;20.77;8.63;;;8.00;86.20;;;;;;3550095;40;20416;-64
2021/04/28 06:37:10;;;;;;;20.75;9.45;;;8.20;84.10;;;;;;3545252;40;20101;-65
2021/04/28 06:39:36;;;;;;;21.17;8.05;;;8.10;81.80;;;;;;3549034;40;20064;-65
2021/04/28 06:42:02;;;;;;;18.20;8.50;;;8.30;84.90;;;;;;3558251;40;20529;-65
2021/04/28 06:44:28;;;;;;;18.67;7.57;;;8.30;84.90;;;;;;3558212;40;20049;-64
2021/04/28 06:46:54;;;;;;;31.13;9.18;;;8.40;81.70;;;;;;3548032;40;20039;-64
2021/04/28 06:49:19;;;;;;;23.33;8.10;;;8.50;79.60;;;;;;3547256;40;20026;-64
2021/04/28 06:51:45;;;;;;;21.58;8.57;;;8.60;80.00;;;;;;3551153;40;20030;-64
2021/04/28 06:54:11;;;;;;;19.70;8.57;;;8.80;81.30;;;;;;3533724;40;20046;-64
2021/04/28 06:56:41;;;;;;;20.67;8.82;;;9.00;80.80;;;;;;3543418;40;20704;-64
2021/04/28 06:59:08;;;;;;;19.60;8.02;;;9.40;77.40;;;;;;3545638;40;20049;-64
2021/04/28 07:01:33;;;;;;;21.90;8.95;;;9.30;75.60;;;;;;3554506;40;20319;-64
2021/04/28 07:03:59;;;;;;;19.67;8.52;;;9.20;73.40;;;;;;3550662;40;20045;-64
2021/04/28 07:06:25;;;;;;;27.67;9.00;;;9.30;73.90;;;;;;3559484;40;20696;-64
2021/04/28 07:08:50;;;;;;;23.88;9.23;;;9.20;75.90;;;;;;3547078;40;20030;-64
2021/04/28 07:11:16;;;;;;;20.17;8.45;;;9.20;75.40;;;;;;3548338;40;20038;-64
2021/04/28 07:13:42;;;;;;;25.15;9.02;;;9.30;75.20;;;;;;3556504;40;20038;-64
2021/04/28 07:16:07;;;;;;;25.58;9.43;;;9.50;75.10;;;;;;3549183;40;20031;-64
2021/04/28 07:18:33;;;;;;;26.42;9.30;;;9.70;73.40;;;;;;3555467;40;20014;-65
2021/04/28 07:20:59;;;;;;;18.35;8.88;;;10.00;74.50;;;;;;3556771;40;20045;-65
2021/04/28 07:23:25;;;;;;;17.67;8.23;;;10.20;70.70;;;;;;3556984;40;20040;-65
2021/04/28 07:25:50;;;;;;;23.23;8.98;;;10.20;72.10;;;;;;3548230;40;20500;-64
2021/04/28 07:28:16;;;;;;;21.17;10.00;;;9.70;71.90;;;;;;3550544;40;20036;-64
2021/04/28 07:30:42;;;;;;;21.52;8.80;;;9.60;73.00;;;;;;3554622;40;20034;-64
2021/04/28 07:33:08;;;;;;;25.52;9.57;;;9.50;72.70;;;;;;3546439;40;20136;-63
2021/04/28 07:35:33;;;;;;;24.95;8.82;;;9.60;72.90;;;;;;3544372;40;20041;-64
2021/04/28 07:37:59;;;;;;;17.05;8.88;;;9.70;72.20;;;;;;3554948;40;20038;-64
2021/04/28 07:40:25;;;;;;;23.00;8.90;;;9.80;71.20;;;;;;3556471;40;20051;-64
2021/04/28 07:42:51;;;;;;;20.95;9.65;;;10.00;73.00;;;;;;3551534;40;20037;-64
2021/04/28 07:45:20;;;;;;;17.83;9.48;;;10.10;70.60;;;;;;3537436;40;20393;-64
2021/04/28 07:47:46;;;;;;;27.50;9.43;;;10.20;70.70;;;;;;3550291;40;20463;-64
2021/04/28 07:50:14;;;;;;;30.75;8.45;;;10.40;70.90;;;;;;3553596;40;20038;-65
2021/04/28 07:52:40;;;;;;;23.15;9.40;;;10.50;70.10;;;;;;3550303;40;20056;-64
2021/04/28 07:55:06;;;;;;;27.60;10.00;;;10.80;69.30;;;;;;3556368;40;20027;-64
2021/04/28 07:57:32;;;;;;;22.85;9.38;;;11.10;68.20;;;;;;3550863;40;20041;-64
2021/04/28 07:59:58;;;;;;;24.70;9.77;;;11.30;67.50;;;;;;3557595;40;20046;-64
2021/04/28 08:02:24;;;;;;;22.48;9.27;;;11.60;67.20;;;;;;3559200;40;20042;-64
2021/04/28 08:04:49;;;;;;;22.13;8.32;;;11.70;64.30;;;;;;3554477;40;20062;-64
2021/04/28 08:07:15;;;;;;;17.17;8.55;;;11.60;63.70;;;;;;3556376;40;20139;-64
2021/04/28 08:09:41;;;;;;;20.17;9.25;;;11.70;64.00;;;;;;3543891;40;20341;-64
2021/04/28 08:12:07;;;;;;;22.65;9.18;;;12.00;62.90;;;;;;3554518;40;20038;-64
2021/04/28 08:14:33;;;;;;;22.98;9.20;;;12.30;65.20;;;;;;3541585;40;20042;-64
2021/04/28 08:16:59;;;;;;;21.30;9.85;;;12.60;60.80;;;;;;3548231;40;20037;-64
2021/04/28 08:19:25;;;;;;;20.50;9.30;;;12.30;61.60;;;;;;3549671;40;20101;-64
2021/04/28 08:21:53;;;;;;;24.55;9.55;;;12.60;62.90;;;;;;3546930;40;20031;-65
2021/04/28 08:24:19;;;;;;;20.48;9.35;;;13.10;60.50;;;;;;3548603;40;20436;-64
2021/04/28 08:26:45;;;;;;;27.05;9.07;;;13.40;59.40;;;;;;3556881;40;20038;-65
2021/04/28 08:29:11;;;;;;;20.08;9.40;;;13.70;58.60;;;;;;3549612;40;20355;-64
2021/04/28 08:31:38;;;;;;;22.20;9.32;;;13.90;56.70;;;;;;3554087;40;20092;-64
2021/04/28 08:34:04;;;;;;;20.88;8.57;;;14.00;56.00;;;;;;3552184;40;20053;-71
2021/04/28 08:36:33;;;;;;;19.88;8.93;;;14.00;55.60;;;;;;3552091;40;20040;-68
2021/04/28 08:38:59;;;;;;;18.63;10.10;;;13.90;54.20;;;;;;3553521;40;20573;-73
2021/04/28 08:41:25;;;;;;;24.20;9.02;;;14.20;55.70;;;;;;3554390;40;20054;-69
2021/04/28 08:43:51;;;;;;;26.85;9.40;;;14.20;53.80;;;;;;3546335;40;20714;-65
2021/04/28 08:46:16;;;;;;;22.33;9.15;;;14.50;53.50;;;;;;3543850;40;20059;-64
2021/04/28 08:48:42;;;;;;;22.73;11.02;;;14.60;54.00;;;;;;3551030;40;20031;-64
2021/04/28 08:51:08;;;;;;;27.55;8.43;;;15.10;52.80;;;;;;3555753;40;20034;-64
2021/04/28 08:53:36;;;;;;;22.23;9.23;;;15.30;50.10;;;;;;3553140;40;20038;-64
2021/04/28 08:56:08;;;;;;;20.40;9.35;;;15.50;50.00;;;;;;3555737;40;20050;-64
2021/04/28 08:58:35;;;;;;;19.23;8.65;;;15.80;51.30;;;;;;3548539;40;20035;-64
2021/04/28 09:01:01;;;;;;;19.65;9.40;;;16.20;48.50;;;;;;3551086;40;20121;-64
2021/04/28 09:03:44;;;;;;;18.70;9.32;;;15.90;49.30;;;;;;3552454;40;20071;-64
2021/04/28 09:06:31;;;;;;;18.75;9.43;;;16.10;49.10;;;;;;3552398;40;20146;-64
2021/04/28 09:09:05;;;;;;;30.23;9.95;;;16.10;48.10;;;;;;3548881;40;20852;-64
2021/04/28 09:11:49;;;;;;;22.98;9.15;;;16.00;48.00;;;;;;3550991;40;20510;-64
2021/04/28 09:14:24;;;;;;;18.25;9.25;;;15.90;46.60;;;;;;3542839;40;20046;-64
2021/04/28 09:17:04;;;;;;;18.33;9.20;;;16.10;49.00;;;;;;3547381;40;20057;-64
2021/04/28 09:19:54;;;;;;;27.40;9.52;;;16.30;48.40;;;;;;3545069;40;20116;-63
2021/04/28 09:23:05;;;;;;;19.35;9.73;;;16.50;48.00;;;;;;3549976;40;20066;-63
2021/04/28 09:25:51;;;;;;;23.35;10.50;;;16.80;48.60;;;;;;3547339;40;20767;-63
2021/04/28 09:28:37;;;;;;;19.88;9.15;;;17.10;47.60;;;;;;3548962;40;20042;-63
2021/04/28 09:31:06;;;;;;;18.83;9.82;;;16.90;47.40;;;;;;3547043;40;20053;-65
2021/04/28 09:33:40;;;;;;;19.80;9.60;;;17.00;46.50;;;;;;3539783;40;20034;-65
2021/04/28 09:36:07;;;;;;;19.20;9.90;;;17.00;46.40;;;;;;3541664;40;20252;-65
2021/04/28 09:38:48;;;;;;;21.42;10.27;;;17.20;46.30;;;;;;3553334;40;20050;-66
2021/04/28 09:41:51;;;;;;;15.68;9.07;;;17.30;46.80;;;;;;3555511;40;20044;-67
2021/04/28 09:44:20;;;;;;;29.20;11.18;;;17.50;47.40;;;;;;3549638;40;20045;-66
2021/04/28 09:47:02;;;;;;;24.27;9.90;;;17.70;45.80;;;;;;3534919;40;20038;-66
2021/04/28 09:49:46;;;;;;;21.48;9.40;;;17.90;44.80;;;;;;3553198;40;20124;-67
2021/04/28 09:52:12;;;;;;;21.40;9.93;;;18.30;45.70;;;;;;3540807;40;20113;-67
2021/04/28 09:54:40;;;;;;;23.00;11.38;;;18.40;44.50;;;;;;3539324;40;20038;-67
2021/04/28 09:57:06;;;;;;;19.92;10.32;;;18.20;44.90;;;;;;3551419;40;20690;-67
2021/04/28 09:59:45;;;;;;;27.90;11.68;;;17.90;44.50;;;;;;3545679;40;20052;-67
2021/04/28 10:02:31;;;;;;;32.13;14.73;;;17.60;45.10;;;;;;3543686;40;20390;-68
2021/04/28 10:05:19;;;;;;;20.33;10.55;;;17.90;45.50;;;;;;3551826;40;20053;-66
2021/04/28 10:07:46;;;;;;;19.80;10.68;;;18.00;44.80;;;;;;3546399;40;20104;-66
2021/04/28 10:10:14;;;;;;;24.85;11.93;;;18.20;44.80;;;;;;3552091;40;20046;-67
2021/04/28 10:12:39;;;;;;;23.35;11.65;;;18.10;45.20;;;;;;3550998;40;20042;-68
2021/04/28 10:15:07;;;;;;;22.17;11.18;;;17.70;44.80;;;;;;3539150;40;20054;-74
2021/04/28 10:17:35;;;;;;;27.88;11.35;;;17.60;45.90;;;;;;3558984;40;20146;-76
2021/04/28 10:20:03;;;;;;;25.70;11.25;;;17.90;45.00;;;;;;3552604;40;20073;-75
2021/04/28 10:22:30;;;;;;;27.58;11.95;;;18.00;45.00;;;;;;3551038;40;20132;-75
2021/04/28 10:24:57;;;;;;;23.75;11.25;;;17.90;45.00;;;;;;3551585;40;20054;-75
2021/04/28 10:27:23;;;;;;;22.30;10.32;;;17.90;46.20;;;;;;3556654;40;20109;-74
2021/04/28 10:29:53;;;;;;;22.08;10.43;;;18.50;46.00;;;;;;3542002;40;20064;-74
2021/04/28 10:32:21;;;;;;;21.33;10.73;;;18.50;46.80;;;;;;3552053;40;20613;-75
2021/04/28 10:34:53;;;;;;;24.27;10.48;;;18.30;45.10;;;;;;3547745;40;20428;-75
2021/04/28 10:37:21;;;;;;;24.45;10.63;;;18.30;47.00;;;;;;3548352;40;20041;-77
2021/04/28 10:39:49;;;;;;;22.13;10.57;;;18.30;47.00;;;;;;3550392;40;20717;-75
2021/04/28 10:42:31;;;;;;;22.40;9.85;;;18.70;47.80;;;;;;3550804;40;20034;-76
2021/04/28 10:44:57;;;;;;;20.52;9.80;;;18.70;46.00;;;;;;3544022;40;20045;-76
2021/04/28 10:47:33;;;;;;;24.63;11.13;;;19.00;45.30;;;;;;3549536;40;20037;-75
2021/04/28 10:50:11;;;;;;;21.70;10.25;;;18.90;45.80;;;;;;3552205;40;20044;-76
2021/04/28 10:52:49;;;;;;;21.38;10.00;;;18.50;45.70;;;;;;3546608;40;20042;-71
2021/04/28 10:56:00;;;;;;;22.95;11.05;;;18.80;46.20;;;;;;3545257;40;20160;-64
2021/04/28 10:58:29;;;;;;;20.33;10.02;;;18.70;44.50;;;;;;3545914;40;20510;-64
2021/04/28 11:01:01;;;;;;;23.02;9.77;;;18.60;45.30;;;;;;3546044;40;20504;-64
2021/04/28 11:03:42;;;;;;;19.02;9.75;;;18.50;46.50;;;;;;3543171;40;20069;-64
2021/04/28 11:06:17;;;;;;;21.20;10.73;;;18.50;47.00;;;;;;3548034;40;20042;-65
2021/04/28 11:08:49;;;;;;;17.17;9.55;;;18.70;45.20;;;;;;3541158;40;20042;-65
2021/04/28 11:11:30;;;;;;;25.48;9.77;;;18.80;46.20;;;;;;3543111;40;20772;-64
2021/04/28 11:14:08;;;;;;;20.63;9.85;;;19.10;45.60;;;;;;3544713;40;20102;-66
2021/04/28 11:16:51;;;;;;;21.45;9.30;;;19.10;45.00;;;;;;3548001;40;20048;-66
2021/04/28 11:19:22;;;;;;;17.33;8.85;;;19.60;44.50;;;;;;3542802;40;20034;-66
2021/04/28 11:22:22;;;;;;;19.45;9.60;;;19.20;44.90;;;;;;3546875;40;20128;-66
2021/04/28 11:25:02;;;;;;;23.85;9.30;;;19.50;45.70;;;;;;3551573;40;20054;-66
2021/04/28 11:27:47;;;;;;;18.20;9.48;;;19.70;43.00;;;;;;3551930;40;20045;-64
2021/04/28 11:30:35;;;;;;;23.33;9.05;;;20.60;43.20;;;;;;3543900;40;20038;-64
2021/04/28 11:33:17;;;;;;;19.65;9.48;;;20.00;42.20;;;;;;3552381;40;20041;-66
2021/04/28 11:35:52;;;;;;;15.75;8.18;;;20.10;42.70;;;;;;3554323;40;20061;-67
2021/04/28 11:38:22;;;;;;;18.02;8.25;;;20.70;42.70;;;;;;3550501;40;20371;-63
2021/04/28 11:40:54;;;;;;;17.40;8.27;;;20.90;41.40;;;;;;3552722;40;20046;-64
2021/04/28 11:43:25;;;;;;;17.20;9.40;;;20.60;41.30;;;;;;3547374;40;20034;-63
2021/04/28 11:45:53;;;;;;;18.63;9.73;;;20.60;43.30;;;;;;3541583;40;20038;-63
2021/04/28 11:48:21;;;;;;;23.48;9.38;;;20.50;42.90;;;;;;3552568;40;20421;-64
2021/04/28 11:51:00;;;;;;;16.73;8.55;;;20.80;41.70;;;;;;3546201;40;20038;-63
2021/04/28 11:53:27;;;;;;;15.07;8.32;;;20.20;42.10;;;;;;3552201;40;20096;-62
2021/04/28 11:55:53;;;;;;;20.00;8.57;;;20.30;41.00;;;;;;3551409;40;20038;-71
2021/04/28 11:58:32;;;;;;;16.83;8.18;;;20.30;41.90;;;;;;3552045;40;20511;-71
2021/04/28 12:01:10;;;;;;;12.77;7.72;;;21.00;41.20;;;;;;3541194;40;20038;-71
2021/04/28 12:04:04;;;;;;;18.75;8.63;;;21.70;40.90;;;;;;3536380;40;20222;-71
2021/04/28 12:06:33;;;;;;;20.42;9.55;;;21.30;39.70;;;;;;3552158;40;20065;-71
2021/04/28 12:09:16;;;;;;;16.38;8.60;;;21.00;40.70;;;;;;3540957;40;20057;-71
2021/04/28 12:11:46;;;;;;;13.98;7.90;;;21.40;40.20;;;;;;3543536;40;20045;-71
2021/04/28 12:14:13;;;;;;;15.50;6.95;;;21.10;41.40;;;;;;3552088;40;20116;-72
2021/04/28 12:16:40;;;;;;;11.88;6.15;;;20.90;39.90;;;;;;3538856;40;20050;-71
2021/04/28 12:19:12;;;;;;;15.07;7.75;;;21.10;41.20;;;;;;3522864;40;20071;-72
2021/04/28 12:21:50;;;;;;;12.05;6.75;;;20.70;39.60;;;;;;3525510;40;20679;-72
2021/04/28 12:24:23;;;;;;;12.02;6.45;;;20.70;39.90;;;;;;3523997;40;20052;-72
2021/04/28 12:27:05;;;;;;;9.82;5.85;;;20.60;39.70;;;;;;3525334;40;20530;-72
2021/04/28 12:29:32;;;;;;;10.43;6.00;;;20.40;40.20;;;;;;3525837;40;20449;-71
2021/04/28 12:31:58;;;;;;;12.40;7.45;;;20.20;40.40;;;;;;3526012;40;20027;-74
2021/04/28 12:34:24;;;;;;;10.35;6.38;;;20.00;41.10;;;;;;3526018;40;20092;-74
2021/04/28 12:36:49;;;;;;;11.18;6.85;;;20.10;41.20;;;;;;3518781;40;20416;-73
2021/04/28 12:39:26;;;;;;;13.52;6.47;;;20.20;40.40;;;;;;3518116;40;20419;-74
2021/04/28 12:41:53;;;;;;;10.27;6.28;;;20.20;41.60;;;;;;3527048;40;20083;-74
2021/04/28 12:44:19;;;;;;;13.18;7.20;;;20.40;41.70;;;;;;3526951;40;20250;-73
2021/04/28 12:46:45;;;;;;;12.90;6.80;;;20.40;40.70;;;;;;3536539;40;20614;-73
2021/04/28 12:49:11;;;;;;;13.85;7.45;;;20.80;40.70;;;;;;3529958;40;20081;-73
2021/04/28 12:51:45;;;;;;;16.58;7.80;;;21.00;40.60;;;;;;3541373;40;20447;-72
2021/04/28 12:54:12;;;;;;;13.77;7.70;;;21.00;39.40;;;;;;3546784;40;20071;-73
2021/04/28 12:56:45;;;;;;;15.95;7.45;;;21.50;39.40;;;;;;3538134;40;20037;-73
2021/04/28 12:59:16;;;;;;;9.07;5.78;;;21.70;38.70;;;;;;3538693;40;20034;-73